Time;durP1;ratioP1;P1;durP2;ratioP2;P2;SDS_P1;SDS_P2;PMS_P1;PMS_P2;Temp;Humidity;BMP_temperature;BMP_pressure;BME280_temperature;BME280_humidity;BME280_pressure;Samples;Min_cycle;Max_cycle;Signal;HPM_P1;HPM_P2
2022/08/20 00:00:26;;;;;;;37.25;23.75;;;;;;;19.69;38.89;100884.41;5013491;28;20115;-57
2022/08/20 00:02:57;;;;;;;42.25;21.83;;;;;;;19.85;38.49;100892.69;5023184;28;20064;-50
2022/08/20 00:05:29;;;;;;;29.40;20.95;;;;;;;19.70;38.87;100869.81;5030316;28;20049;-53
2022/08/20 00:07:55;;;;;;;31.23;20.63;;;;;;;19.62;39.12;100887.75;5033052;28;20079;-52
2022/08/20 00:10:21;;;;;;;31.52;20.35;;;;;;;19.68;39.39;100875.41;5031592;28;20022;-56
2022/08/20 00:12:49;;;;;;;33.50;20.50;;;;;;;19.64;39.26;100869.44;5032348;28;20025;-55
2022/08/20 00:15:18;;;;;;;31.40;19.50;;;;;;;19.60;39.93;100868.03;5032417;28;20057;-59
2022/08/20 00:17:43;;;;;;;33.17;21.15;;;;;;;19.49;40.07;100880.00;5030806;28;20037;-56
2022/08/20 00:20:11;;;;;;;36.88;21.85;;;;;;;19.48;40.01;100872.88;5032610;28;20030;-55
2022/08/20 00:22:37;;;;;;;38.53;25.08;;;;;;;19.45;40.44;100881.34;5030746;28;20034;-56
2022/08/20 00:25:04;;;;;;;33.42;24.50;;;;;;;19.39;40.33;100873.78;5032351;28;20066;-55
2022/08/20 00:27:30;;;;;;;44.78;26.38;;;;;;;19.40;40.50;100882.81;5032278;28;20733;-67
2022/08/20 00:29:55;;;;;;;39.55;25.38;;;;;;;19.24;40.44;100848.22;5030080;28;20042;-54
2022/08/20 00:32:21;;;;;;;35.25;26.63;;;;;;;19.27;40.81;100875.06;5022253;28;20053;-54
2022/08/20 00:34:47;;;;;;;42.78;26.77;;;;;;;19.16;41.33;100876.13;5012242;28;20084;-55
2022/08/20 00:37:13;;;;;;;38.97;24.55;;;;;;;19.33;40.87;100869.00;5013220;28;20038;-54
2022/08/20 00:39:38;;;;;;;37.15;27.25;;;;;;;19.35;40.77;100878.69;5012601;28;20474;-56
2022/08/20 00:42:04;;;;;;;37.30;27.05;;;;;;;19.26;41.09;100885.03;5015581;28;20344;-56
2022/08/20 00:44:30;;;;;;;42.95;26.05;;;;;;;19.24;41.23;100878.91;5012058;28;20113;-52
2022/08/20 00:46:56;;;;;;;37.70;26.17;;;;;;;19.14;41.56;100870.00;5013290;28;20033;-56
2022/08/20 00:49:27;;;;;;;40.47;25.85;;;;;;;18.92;42.01;100866.69;5025143;28;20504;-58
2022/08/20 00:51:52;;;;;;;38.55;25.30;;;;;;;18.97;41.98;100874.38;5012503;28;20038;-49
2022/08/20 00:54:23;;;;;;;36.03;25.40;;;;;;;18.99;41.73;100878.66;5012001;28;20042;-55
2022/08/20 00:56:53;;;;;;;36.75;24.60;;;;;;;18.86;42.34;100872.75;5012984;28;20037;-55
2022/08/20 00:59:26;;;;;;;37.03;24.73;;;;;;;18.83;42.45;100873.88;5012110;28;20142;-49
2022/08/20 01:01:52;;;;;;;32.15;23.02;;;;;;;18.82;42.89;100898.47;5012252;28;20033;-61
2022/08/20 01:04:18;;;;;;;36.63;23.65;;;;;;;18.80;42.76;100888.59;5011397;28;20486;-55
2022/08/20 01:06:43;;;;;;;34.33;24.65;;;;;;;18.84;42.74;100881.03;5011953;28;20069;-53
2022/08/20 01:09:10;;;;;;;33.83;23.10;;;;;;;18.94;42.70;100897.25;5012170;28;20069;-53
2022/08/20 01:11:36;;;;;;;38.25;22.52;;;;;;;18.88;42.97;100890.56;5030236;28;20136;-54
2022/08/20 01:16:55;;;;;;;32.25;22.77;;;;;;;18.70;42.94;100874.25;5031590;28;20036;-51
2022/08/20 01:19:30;;;;;;;38.92;21.10;;;;;;;18.80;43.15;100891.31;5029851;28;20056;-55
2022/08/20 01:21:57;;;;;;;35.10;21.52;;;;;;;18.76;43.38;100895.34;5031287;28;20127;-56
2022/08/20 01:24:37;;;;;;;35.00;20.95;;;;;;;18.83;42.94;100901.03;5031395;28;20039;-53
2022/08/20 01:27:04;;;;;;;29.70;19.98;;;;;;;18.84;43.13;100896.47;5030296;28;20095;-54
2022/08/20 01:29:38;;;;;;;32.33;20.35;;;;;;;18.86;43.09;100899.88;5031694;28;20493;-55
2022/08/20 01:32:05;;;;;;;33.25;20.08;;;;;;;18.68;43.73;100908.81;5029416;28;20033;-67
2022/08/20 01:34:30;;;;;;;28.38;18.95;;;;;;;18.61;43.68;100897.72;5031002;28;20042;-52
2022/08/20 01:36:57;;;;;;;33.92;19.60;;;;;;;18.55;43.98;100903.75;5031574;28;20041;-54
2022/08/20 01:39:32;;;;;;;24.92;18.92;;;;;;;18.72;43.47;100910.22;5017018;28;20371;-56
2022/08/20 01:42:13;;;;;;;27.10;17.67;;;;;;;18.66;43.72;100902.69;5011331;28;20037;-49
2022/08/20 01:44:41;;;;;;;30.77;18.27;;;;;;;18.59;43.88;100901.59;5012204;28;20121;-52
2022/08/20 01:47:22;;;;;;;21.58;17.27;;;;;;;18.63;43.51;100906.53;5010943;28;20084;-57
2022/08/20 01:49:51;;;;;;;27.15;16.77;;;;;;;18.59;43.87;100907.03;5011498;28;20044;-55
2022/08/20 01:52:41;;;;;;;29.20;17.67;;;;;;;18.59;43.45;100910.56;5012074;28;20037;-55
2022/08/20 01:55:09;;;;;;;26.05;17.20;;;;;;;18.39;44.33;100909.81;5011285;28;20034;-54
2022/08/20 01:57:36;;;;;;;26.10;16.73;;;;;;;18.34;44.02;100895.84;5013424;28;20095;-54
2022/08/20 02:00:07;;;;;;;26.92;16.95;;;;;;;18.53;43.78;100905.75;5029579;28;20033;-54
2022/08/20 02:02:32;;;;;;;23.02;15.65;;;;;;;18.37;44.10;100895.56;5031325;28;20076;-51
2022/08/20 02:04:59;;;;;;;23.42;15.68;;;;;;;18.40;43.82;100916.94;5030685;28;20057;-54
2022/08/20 02:07:26;;;;;;;22.73;15.27;;;;;;;18.27;43.63;100894.72;5029031;28;20081;-57
2022/08/20 02:09:51;;;;;;;26.90;15.45;;;;;;;18.35;43.75;100902.97;5030861;28;20042;-58
2022/08/20 02:12:17;;;;;;;19.58;14.10;;;;;;;18.31;43.78;100906.97;5028999;28;20159;-54
2022/08/20 02:14:47;;;;;;;27.95;15.57;;;;;;;18.30;44.10;100916.09;5032029;28;20037;-58
2022/08/20 02:17:14;;;;;;;23.90;13.77;;;;;;;18.20;44.32;100913.41;5034534;28;20112;-59
2022/08/20 02:19:52;;;;;;;19.35;13.40;;;;;;;18.29;43.88;100908.97;5033318;28;20040;-57
2022/08/20 02:22:18;;;;;;;20.40;12.88;;;;;;;18.26;43.64;100909.28;5034743;28;20028;-55
2022/08/20 02:24:43;;;;;;;21.63;12.98;;;;;;;18.26;43.97;100909.28;5034703;28;20033;-54
2022/08/20 02:27:09;;;;;;;21.23;12.95;;;;;;;18.33;43.63;100905.00;5032929;28;20041;-54
2022/08/20 02:29:34;;;;;;;24.63;12.80;;;;;;;18.27;43.70;100911.84;5033515;28;20144;-55
2022/08/20 02:32:01;;;;;;;20.73;12.45;;;;;;;18.35;43.54;100921.97;5034415;28;20033;-56
2022/08/20 02:34:26;;;;;;;20.73;12.68;;;;;;;18.38;43.34;100923.50;5034755;28;20084;-52
2022/08/20 02:36:52;;;;;;;22.45;11.95;;;;;;;18.50;43.07;100927.75;5032788;28;20427;-56
2022/08/20 02:39:17;;;;;;;18.20;12.13;;;;;;;18.47;43.19;100919.91;5032927;28;20029;-57
2022/08/20 02:41:42;;;;;;;26.20;11.82;;;;;;;18.41;43.45;100915.94;5033046;28;20079;-54
2022/08/20 02:44:08;;;;;;;16.00;11.27;;;;;;;18.47;43.27;100926.19;5015549;28;20026;-68
2022/08/20 02:46:34;;;;;;;19.08;12.18;;;;;;;18.38;43.42;100931.63;5014764;28;20069;-52
2022/08/20 02:49:00;;;;;;;22.60;12.75;;;;;;;18.38;43.47;100928.91;5022258;28;20485;-54
2022/08/20 02:51:26;;;;;;;18.77;12.90;;;;;;;18.27;43.34;100916.41;5034345;28;20025;-52
2022/08/20 02:53:52;;;;;;;22.75;13.77;;;;;;;18.44;43.08;100931.91;5034253;28;20034;-53
2022/08/20 02:56:18;;;;;;;19.95;13.85;;;;;;;18.38;43.61;100929.78;5032417;28;20373;-52
2022/08/20 02:58:44;;;;;;;23.02;14.70;;;;;;;18.41;43.51;100945.75;5034039;28;20083;-48
2022/08/20 03:01:15;;;;;;;25.58;17.20;;;;;;;18.55;43.32;100936.28;5033845;28;20037;-57
2022/08/20 03:03:42;;;;;;;30.45;18.85;;;;;;;18.52;43.38;100936.59;5032473;28;20041;-57
2022/08/20 03:06:09;;;;;;;33.60;20.17;;;;;;;18.59;43.16;100934.97;5033996;28;20037;-53
2022/08/20 03:08:36;;;;;;;30.30;20.50;;;;;;;18.44;43.33;100923.75;5032232;28;20088;-56
2022/08/20 03:11:03;;;;;;;38.00;26.27;;;;;;;18.68;43.08;100938.66;5028015;28;20116;-53
2022/08/20 03:13:28;;;;;;;43.70;28.67;;;;;;;18.67;43.09;100931.53;5034047;28;20057;-51
2022/08/20 03:15:58;;;;;;;45.35;34.00;;;;;;;18.73;42.82;100936.34;5033834;28;20484;-52
2022/08/20 03:18:27;;;;;;;47.47;35.38;;;;;;;18.76;42.81;100932.47;5015942;28;20040;-52
2022/08/20 03:20:52;;;;;;;50.95;34.75;;;;;;;18.80;42.95;100934.72;5013867;28;20026;-54
2022/08/20 03:23:20;;;;;;;49.70;37.17;;;;;;;18.87;42.96;100939.56;5014202;28;20049;-54
2022/08/20 03:25:45;;;;;;;62.55;44.85;;;;;;;18.94;42.63;100936.09;5014374;28;20037;-55
2022/08/20 03:28:12;;;;;;;56.28;42.45;;;;;;;19.00;42.49;100942.78;5013419;28;20048;-59
2022/08/20 03:30:39;;;;;;;58.78;41.28;;;;;;;19.03;42.44;100937.06;5014276;28;20025;-54
2022/08/20 03:33:04;;;;;;;60.25;41.92;;;;;;;19.03;42.64;100933.50;5014677;28;20099;-56
2022/08/20 03:35:31;;;;;;;55.53;40.72;;;;;;;19.25;42.24;100937.63;5026042;28;20030;-55
2022/08/20 03:37:57;;;;;;;60.33;39.72;;;;;;;19.16;42.33;100933.13;5033317;28;20045;-50
2022/08/20 03:40:29;;;;;;;50.10;38.30;;;;;;;19.29;42.37;100944.50;5030926;28;20418;-52
2022/08/20 03:42:55;;;;;;;55.40;38.13;;;;;;;19.35;42.02;100911.28;5033241;28;20038;-56
2022/08/20 03:45:22;;;;;;;53.22;36.72;;;;;;;20.25;40.73;100933.06;5030250;28;20186;-50
2022/08/20 03:47:49;;;;;;;43.90;31.05;;;;;;;21.35;38.09;100937.81;5033093;28;20112;-52
2022/08/20 03:50:14;;;;;;;41.70;29.42;;;;;;;22.26;36.10;100936.94;5032889;28;20037;-55
2022/08/20 03:52:40;;;;;;;48.90;30.73;;;;;;;23.20;34.25;100928.06;5033394;28;20163;-54
2022/08/20 03:55:08;;;;;;;37.20;27.05;;;;;;;23.85;33.19;100936.81;5018266;28;20095;-50
2022/08/20 03:57:34;;;;;;;36.58;25.92;;;;;;;24.34;32.26;100934.66;5012961;28;20097;-53
2022/08/20 04:00:01;;;;;;;34.30;24.42;;;;;;;24.95;31.39;100936.34;5019458;28;20025;-55
2022/08/20 04:02:27;;;;;;;31.45;20.60;;;;;;;25.22;29.91;100934.78;5032927;28;20136;-58
2022/08/20 04:04:53;;;;;;;30.60;21.45;;;;;;;25.62;29.59;100933.50;5033218;28;20073;-50
2022/08/20 04:07:26;;;;;;;28.38;19.98;;;;;;;26.36;28.89;100937.69;5027340;28;20092;-59
2022/08/20 04:09:54;;;;;;;27.08;18.92;;;;;;;26.44;28.19;100936.69;5032541;28;20469;-53
2022/08/20 04:12:20;;;;;;;28.08;17.35;;;;;;;26.58;28.11;100942.28;5032801;28;20041;-55
2022/08/20 04:14:45;;;;;;;26.70;16.95;;;;;;;27.39;27.08;100939.84;5027706;28;20026;-54
2022/08/20 04:17:13;;;;;;;25.90;16.40;;;;;;;28.43;25.21;100931.19;5012979;28;20103;-54
2022/08/20 04:19:39;;;;;;;23.52;16.40;;;;;;;28.84;24.71;100937.44;5011752;28;20443;-54
2022/08/20 04:22:06;;;;;;;24.48;15.48;;;;;;;27.96;25.32;100929.34;5016633;28;20057;-58
2022/08/20 04:24:33;;;;;;;23.48;14.52;;;;;;;26.97;26.54;100932.53;5012504;28;20536;-56
2022/08/20 04:27:03;;;;;;;20.33;14.13;;;;;;;25.92;27.93;100942.44;5012475;28;20461;-55
2022/08/20 04:29:29;;;;;;;25.17;14.23;;;;;;;24.70;29.43;100950.34;5030989;28;20043;-55
2022/08/20 04:31:55;;;;;;;20.48;13.63;;;;;;;23.61;31.47;100949.66;5032443;28;20041;-50
2022/08/20 04:34:21;;;;;;;21.80;12.48;;;;;;;23.05;32.77;100939.75;5025409;28;20038;-52
2022/08/20 04:36:47;;;;;;;24.60;12.40;;;;;;;23.04;32.57;100935.31;5024269;28;20036;-50
2022/08/20 04:39:14;;;;;;;25.90;13.13;;;;;;;23.25;32.49;100924.78;5032416;28;20056;-54
2022/08/20 04:41:40;;;;;;;19.40;11.48;;;;;;;23.70;31.50;100925.84;5032376;28;20021;-53
2022/08/20 04:44:06;;;;;;;19.58;12.05;;;;;;;24.11;30.69;100932.84;5016268;28;20505;-55
2022/08/20 04:46:33;;;;;;;21.58;11.00;;;;;;;25.40;28.43;100932.63;5012433;28;20117;-53
2022/08/20 04:48:59;;;;;;;20.48;10.50;;;;;;;25.55;28.22;100930.69;5018147;28;20030;-57
2022/08/20 04:51:25;;;;;;;18.52;10.73;;;;;;;25.37;28.20;100929.25;5031936;28;20026;-57
2022/08/20 04:53:53;;;;;;;22.30;9.23;;;;;;;25.85;27.42;100944.28;5031760;28;20380;-53
2022/08/20 04:56:29;;;;;;;18.20;10.00;;;;;;;26.80;26.23;100923.78;5014507;28;20443;-51
2022/08/20 04:58:57;;;;;;;20.45;9.68;;;;;;;28.54;24.18;100937.94;5012389;28;20034;-54
2022/08/20 05:01:24;;;;;;;16.20;9.27;;;;;;;29.43;22.08;100937.38;5020535;28;20033;-54
2022/08/20 05:03:53;;;;;;;22.10;10.25;;;;;;;30.34;21.61;100923.22;5031829;28;20053;-50
2022/08/20 05:06:20;;;;;;;15.95;10.20;;;;;;;31.44;20.06;100925.25;5031730;28;20112;-54
2022/08/20 05:08:46;;;;;;;15.02;9.90;;;;;;;31.98;19.40;100927.16;5026560;28;20052;-53
2022/08/20 05:11:15;;;;;;;20.65;10.38;;;;;;;31.47;19.73;100927.53;5031880;28;20470;-55
2022/08/20 05:13:41;;;;;;;15.05;9.77;;;;;;;30.94;20.07;100929.97;5027343;28;20105;-56
2022/08/20 05:16:07;;;;;;;18.63;9.13;;;;;;;30.07;21.40;100937.31;5012002;28;20176;-54
2022/08/20 05:18:33;;;;;;;18.60;9.38;;;;;;;28.99;22.70;100927.00;5012159;28;20038;-53
2022/08/20 05:21:06;;;;;;;15.07;9.35;;;;;;;27.98;23.79;100912.63;5018074;28;20021;-55
2022/08/20 05:23:35;;;;;;;16.35;8.75;;;;;;;27.32;25.19;100946.19;5031239;28;20036;-53
2022/08/20 05:26:06;;;;;;;18.20;10.02;;;;;;;26.52;25.68;100941.19;5031339;28;20397;-56
2022/08/20 05:28:32;;;;;;;17.77;9.30;;;;;;;25.61;26.97;100946.38;5031466;28;20412;-56
2022/08/20 05:31:00;;;;;;;21.08;9.48;;;;;;;25.02;28.07;100923.56;5016480;28;20121;-54
2022/08/20 05:33:27;;;;;;;17.60;9.27;;;;;;;24.65;28.67;100952.81;5011639;28;20046;-52
2022/08/20 05:35:53;;;;;;;18.88;9.63;;;;;;;24.13;29.38;100939.00;5016701;28;20025;-56
2022/08/20 05:38:23;;;;;;;17.52;9.18;;;;;;;24.05;29.89;100950.00;5031066;28;20037;-58
2022/08/20 05:40:49;;;;;;;20.75;10.88;;;;;;;23.53;30.43;100919.66;5031451;28;20366;-62
2022/08/20 05:43:14;;;;;;;21.00;10.43;;;;;;;23.19;31.10;100953.69;5014747;28;20030;-54
2022/08/20 05:45:41;;;;;;;19.75;10.13;;;;;;;22.90;31.63;100946.97;5011301;28;20056;-54
2022/08/20 05:48:10;;;;;;;20.10;10.40;;;;;;;22.73;31.96;100960.72;5018142;28;20379;-50
2022/08/20 05:50:37;;;;;;;20.48;11.00;;;;;;;22.46;32.73;100960.13;5030837;28;20067;-54
2022/08/20 05:53:03;;;;;;;15.52;10.10;;;;;;;22.33;33.09;100962.50;5031018;28;20461;-55
2022/08/20 05:55:29;;;;;;;20.05;10.13;;;;;;;22.07;33.53;100955.38;5025071;28;20099;-56
2022/08/20 05:57:59;;;;;;;19.38;9.98;;;;;;;21.98;33.69;100968.16;5030837;28;20381;-50
2022/08/20 06:00:25;;;;;;;22.60;10.13;;;;;;;21.76;34.04;100965.09;5030756;28;20075;-53
2022/08/20 06:05:34;;;;;;;20.48;9.77;;;;;;;21.54;34.52;100952.97;5011129;28;20037;-52
2022/08/20 06:08:02;;;;;;;15.63;9.65;;;;;;;21.48;34.76;100968.09;5009768;28;20052;-54
2022/08/20 06:10:27;;;;;;;18.85;9.48;;;;;;;21.49;34.78;100958.91;5012802;28;20463;-51
2022/08/20 06:12:53;;;;;;;16.88;9.13;;;;;;;21.49;34.76;100955.34;5030299;28;20040;-49
2022/08/20 06:15:19;;;;;;;19.00;9.45;;;;;;;21.29;34.87;100936.59;5029425;28;20103;-51
2022/08/20 06:17:45;;;;;;;15.52;9.55;;;;;;;21.37;35.17;100947.50;5023669;28;20029;-49
2022/08/20 06:20:11;;;;;;;20.38;9.32;;;;;;;21.38;35.12;100945.63;5031030;28;20040;-51
2022/08/20 06:22:37;;;;;;;15.73;8.20;;;;;;;21.54;35.02;100966.59;5027422;28;20034;-54
2022/08/20 06:25:05;;;;;;;17.77;8.35;;;;;;;21.63;34.84;100943.78;5011389;28;20065;-52
2022/08/20 06:27:31;;;;;;;17.17;8.15;;;;;;;21.81;34.37;100950.97;5020493;28;20099;-52
2022/08/20 06:29:56;;;;;;;16.77;7.97;;;;;;;21.75;34.68;100959.84;5030524;28;20025;-57
2022/08/20 06:32:25;;;;;;;16.13;8.38;;;;;;;21.76;34.55;100954.19;5030322;28;20021;-58
2022/08/20 06:34:52;;;;;;;16.63;7.78;;;;;;;21.69;34.33;100935.97;5028435;28;20445;-61
2022/08/20 06:37:24;;;;;;;16.90;7.70;;;;;;;21.76;34.54;100953.38;5030830;28;20077;-54
2022/08/20 06:39:50;;;;;;;17.50;8.13;;;;;;;21.76;34.50;100950.63;5028973;28;20489;-55
2022/08/20 06:42:18;;;;;;;18.25;6.97;;;;;;;21.88;33.75;100949.25;5030873;28;20493;-54
2022/08/20 06:44:48;;;;;;;18.38;6.85;;;;;;;22.07;33.52;100947.19;5026157;28;20030;-55
2022/08/20 06:47:16;;;;;;;15.02;6.80;;;;;;;22.16;33.75;100954.34;5010684;28;20193;-56
2022/08/20 06:49:42;;;;;;;15.82;6.18;;;;;;;22.04;33.68;100939.38;5010601;28;20034;-53
2022/08/20 06:52:08;;;;;;;13.05;5.80;;;;;;;21.91;34.04;100946.19;5025556;28;20056;-52
2022/08/20 06:54:33;;;;;;;14.20;6.10;;;;;;;21.91;34.19;100945.34;5028520;28;20069;-56
2022/08/20 06:57:00;;;;;;;15.52;6.78;;;;;;;22.05;33.80;100946.53;5025857;28;20033;-56
2022/08/20 06:59:25;;;;;;;13.45;5.40;;;;;;;22.10;33.24;100944.13;5028402;28;20112;-54
2022/08/20 07:01:55;;;;;;;13.25;5.95;;;;;;;22.34;32.55;100939.66;5032582;28;20122;-53
2022/08/20 07:04:25;;;;;;;16.23;5.90;;;;;;;22.60;32.27;100933.97;5029728;28;20077;-52
2022/08/20 07:06:51;;;;;;;17.85;6.40;;;;;;;23.03;31.19;100922.69;5027044;28;20083;-52
2022/08/20 07:09:20;;;;;;;16.25;5.95;;;;;;;24.79;28.77;100918.25;5034192;28;20065;-51
2022/08/20 07:11:48;;;;;;;11.27;5.30;;;;;;;28.74;23.26;100913.94;5029225;28;20041;-56
2022/08/20 07:14:14;;;;;;;12.73;4.85;;;;;;;32.71;18.53;100907.47;5014148;28;20594;-53
2022/08/20 07:16:41;;;;;;;15.60;4.97;;;;;;;33.79;17.15;100897.53;5014116;28;20042;-55
2022/08/20 07:19:07;;;;;;;12.52;4.70;;;;;;;34.66;16.75;100901.81;5026174;28;20506;-56
2022/08/20 07:21:33;;;;;;;19.20;5.03;;;;;;;33.79;17.29;100915.00;5014300;28;20109;-57
2022/08/20 07:23:58;;;;;;;12.05;4.25;;;;;;;32.91;17.76;100907.88;5013891;28;20109;-52
2022/08/20 07:26:24;;;;;;;10.60;4.32;;;;;;;33.04;18.00;100901.22;5014723;28;20126;-62
2022/08/20 07:28:49;;;;;;;9.40;4.65;;;;;;;32.71;17.73;100904.69;5013822;28;20038;-55
2022/08/20 07:34:00;;;;;;;12.85;4.70;;;;;;;31.05;19.89;100907.06;5017497;28;20042;-51
2022/08/20 07:36:26;;;;;;;12.23;4.55;;;;;;;30.25;20.37;100910.78;5013651;28;20124;-52
2022/08/20 07:38:53;;;;;;;14.20;4.53;;;;;;;29.62;20.64;100910.69;5013760;28;20080;-53
2022/08/20 07:41:19;;;;;;;10.93;4.55;;;;;;;29.40;21.17;100915.69;5021422;28;20036;-54
2022/08/20 07:43:46;;;;;;;10.85;4.03;;;;;;;28.77;21.71;100920.91;5032962;28;20056;-49
2022/08/20 07:46:14;;;;;;;8.25;4.72;;;;;;;28.15;22.77;100913.00;5031065;28;20100;-58
2022/08/20 07:48:45;;;;;;;15.85;4.88;;;;;;;27.91;22.70;100905.19;5013218;28;20065;-51
2022/08/20 07:51:11;;;;;;;8.45;4.50;;;;;;;27.65;23.29;100908.81;5013340;28;20128;-52
2022/08/20 07:53:39;;;;;;;14.13;4.88;;;;;;;27.34;23.39;100902.81;5016383;28;20036;-53
2022/08/20 07:56:09;;;;;;;12.98;4.95;;;;;;;26.83;24.06;100915.13;5033042;28;20040;-52
2022/08/20 07:58:37;;;;;;;15.60;5.00;;;;;;;26.28;25.05;100909.56;5032868;28;20132;-51
2022/08/20 08:01:04;;;;;;;8.65;4.45;;;;;;;25.87;25.61;100903.78;5025880;28;20137;-54
2022/08/20 08:03:31;;;;;;;15.45;4.82;;;;;;;26.00;24.69;100911.25;5012863;28;20049;-52
2022/08/20 08:05:57;;;;;;;10.80;4.65;;;;;;;26.52;24.43;100902.72;5012819;28;20506;-61
2022/08/20 08:08:27;;;;;;;12.48;4.32;;;;;;;26.71;24.63;100903.03;5030393;28;20072;-52
2022/08/20 08:10:57;;;;;;;10.25;4.88;;;;;;;26.41;25.25;100917.88;5033150;28;20029;-51
2022/08/20 08:13:26;;;;;;;11.55;4.07;;;;;;;25.97;25.80;100906.16;5023229;28;20034;-53
2022/08/20 08:15:56;;;;;;;12.05;4.50;;;;;;;25.72;25.77;100903.88;5011578;28;20390;-51
2022/08/20 08:18:27;;;;;;;13.00;4.47;;;;;;;25.21;26.82;100908.44;5012929;28;20061;-53
2022/08/20 08:20:53;;;;;;;9.68;4.18;;;;;;;24.71;27.52;100901.88;5013279;28;20037;-52
2022/08/20 08:23:21;;;;;;;12.90;4.90;;;;;;;24.50;28.05;100912.56;5021084;28;20025;-51
2022/08/20 08:25:48;;;;;;;14.90;4.70;;;;;;;24.51;28.17;100911.53;5032506;28;20120;-51
2022/08/20 08:28:14;;;;;;;14.68;4.85;;;;;;;24.76;27.88;100914.00;5032000;28;20116;-51
2022/08/20 08:30:41;;;;;;;14.85;5.13;;;;;;;24.87;27.77;100923.63;5012885;28;20504;-54
2022/08/20 08:33:29;;;;;;;12.60;4.25;;;;;;;24.76;27.75;100924.94;5012398;28;20113;-52
2022/08/20 08:36:04;;;;;;;9.93;4.25;;;;;;;24.63;27.88;100917.38;5023222;28;20398;-52
2022/08/20 08:38:33;;;;;;;13.40;4.70;;;;;;;24.59;27.42;100918.81;5013886;28;20096;-54
2022/08/20 08:41:13;;;;;;;9.82;4.40;;;;;;;24.65;27.49;100928.16;5012462;28;20390;-61
2022/08/20 08:43:38;;;;;;;12.73;4.40;;;;;;;24.47;27.50;100929.38;5015343;28;20080;-54
2022/08/20 08:46:08;;;;;;;12.20;4.47;;;;;;;24.39;27.19;100918.53;5031903;28;20474;-52
2022/08/20 08:48:37;;;;;;;11.82;4.35;;;;;;;24.17;27.94;100923.91;5032342;28;20036;-52
2022/08/20 08:51:10;;;;;;;16.70;5.15;;;;;;;24.11;27.62;100923.78;5032316;28;20366;-53
2022/08/20 08:53:41;;;;;;;9.35;4.82;;;;;;;24.02;27.96;100929.38;5012477;28;20052;-53
2022/08/20 08:56:08;;;;;;;10.07;4.53;;;;;;;23.58;28.48;100906.28;5012113;28;20034;-53
2022/08/20 08:58:34;;;;;;;16.67;4.70;;;;;;;23.55;28.79;100923.06;5027971;28;20029;-59
2022/08/20 09:01:09;;;;;;;14.52;4.63;;;;;;;23.71;28.43;100929.44;5012535;28;20044;-61
2022/08/20 09:03:38;;;;;;;16.98;7.15;;;;;;;23.77;28.55;100928.69;5012165;28;20166;-54
2022/08/20 09:06:06;;;;;;;12.80;4.97;;;;;;;23.79;28.11;100932.94;5011685;28;20094;-54
2022/08/20 09:08:42;;;;;;;12.70;5.07;;;;;;;23.70;28.03;100923.09;5012168;28;20049;-52
2022/08/20 09:11:09;;;;;;;15.00;5.38;;;;;;;23.67;28.17;100928.09;5016474;28;20109;-52
2022/08/20 09:13:34;;;;;;;15.88;5.90;;;;;;;23.60;28.19;100925.25;5026115;28;20046;-55
2022/08/20 09:16:00;;;;;;;14.85;5.85;;;;;;;23.58;28.02;100924.59;5011989;28;20477;-60
2022/08/20 09:18:26;;;;;;;15.25;5.80;;;;;;;23.61;28.01;100926.94;5012195;28;20029;-55
2022/08/20 09:20:52;;;;;;;15.90;7.38;;;;;;;23.37;28.20;100928.84;5024980;28;20045;-55
2022/08/20 09:23:17;;;;;;;15.73;7.00;;;;;;;23.32;28.65;100931.25;5030731;28;20063;-57
2022/08/20 09:25:43;;;;;;;13.90;7.18;;;;;;;23.28;28.64;100941.69;5031537;28;20026;-54
2022/08/20 09:28:09;;;;;;;14.93;7.32;;;;;;;23.02;29.31;100940.09;5031080;28;20364;-54
2022/08/20 09:30:34;;;;;;;14.88;7.13;;;;;;;23.01;29.25;100954.78;5019943;28;20494;-50
2022/08/20 09:33:01;;;;;;;15.90;7.57;;;;;;;22.86;29.57;100959.28;5011829;28;20038;-54
2022/08/20 09:35:28;;;;;;;19.00;8.75;;;;;;;22.72;29.84;100948.09;5013182;28;20489;-55
2022/08/20 09:37:53;;;;;;;24.52;9.65;;;;;;;22.78;29.59;100951.97;5031472;28;20485;-56
2022/08/20 09:40:20;;;;;;;16.13;9.07;;;;;;;22.54;30.61;100939.28;5031272;28;20088;-51
2022/08/20 09:42:46;;;;;;;20.55;9.70;;;;;;;22.59;31.17;100945.94;5025002;28;20045;-52
2022/08/20 09:45:12;;;;;;;21.10;10.02;;;;;;;22.64;31.36;100948.13;5031252;28;20116;-53
2022/08/20 09:47:38;;;;;;;21.55;10.45;;;;;;;22.73;31.68;100960.72;5031034;28;20042;-57
2022/08/20 09:50:04;;;;;;;22.17;9.70;;;;;;;22.70;31.14;100955.63;5016039;28;20034;-56
2022/08/20 09:52:33;;;;;;;14.35;9.43;;;;;;;22.73;31.42;100968.91;5011816;28;20093;-54
2022/08/20 09:55:01;;;;;;;19.55;10.55;;;;;;;22.42;32.31;100958.72;5011519;28;20026;-54
2022/08/20 09:57:29;;;;;;;21.77;11.48;;;;;;;22.29;32.92;100958.41;5026155;28;20492;-52
2022/08/20 09:59:59;;;;;;;24.88;11.45;;;;;;;22.29;32.89;100967.44;5011341;28;20091;-57
2022/08/20 10:02:25;;;;;;;24.08;11.95;;;;;;;22.21;33.59;100962.88;5011185;28;20046;-53
2022/08/20 10:04:50;;;;;;;23.83;12.38;;;;;;;22.21;33.45;100962.88;5015749;28;20049;-53
2022/08/20 10:07:16;;;;;;;25.08;13.02;;;;;;;21.97;34.06;100947.38;5031223;28;20697;-55
2022/08/20 10:09:42;;;;;;;24.17;12.20;;;;;;;21.79;35.27;100942.13;5030948;28;20040;-56
2022/08/20 10:12:08;;;;;;;23.17;12.23;;;;;;;21.66;35.72;100937.16;5023071;28;20032;-52
2022/08/20 10:14:33;;;;;;;21.88;13.52;;;;;;;21.67;35.42;100929.84;5011381;28;20038;-63
2022/08/20 10:17:00;;;;;;;20.13;13.13;;;;;;;21.55;36.52;100913.81;5011635;28;20437;-52
2022/08/20 10:19:26;;;;;;;20.02;13.18;;;;;;;21.62;36.19;100916.72;5028636;28;20032;-50
2022/08/20 10:21:53;;;;;;;23.25;13.63;;;;;;;21.50;35.51;100918.91;5030759;28;20108;-53
2022/08/20 10:24:20;;;;;;;24.38;12.85;;;;;;;21.48;36.23;100913.63;5021790;28;20093;-54
2022/08/20 10:26:46;;;;;;;20.08;13.25;;;;;;;21.39;36.78;100913.78;5011175;28;20556;-53
2022/08/20 10:29:12;;;;;;;18.92;12.38;;;;;;;21.52;36.10;100935.94;5011093;28;20030;-56
2022/08/20 10:31:37;;;;;;;29.55;12.45;;;;;;;21.26;36.95;100938.78;5022089;28;20045;-56
2022/08/20 10:34:03;;;;;;;24.05;12.23;;;;;;;21.12;37.05;100924.81;5031421;28;20051;-57
2022/08/20 10:36:28;;;;;;;16.00;10.52;;;;;;;21.08;36.70;100942.47;5033125;28;20138;-54
2022/08/20 10:38:54;;;;;;;19.08;11.27;;;;;;;21.08;37.00;100939.75;5034890;28;20557;-56
2022/08/20 10:41:20;;;;;;;18.13;10.38;;;;;;;21.05;36.88;100938.22;5025453;28;20030;-54
2022/08/20 10:43:45;;;;;;;19.13;10.25;;;;;;;21.10;36.96;100926.00;5015117;28;20061;-53
2022/08/20 10:46:11;;;;;;;15.75;9.80;;;;;;;21.00;37.68;100920.69;5013757;28;20116;-60
2022/08/20 10:48:37;;;;;;;17.90;10.25;;;;;;;21.05;37.77;100921.91;5033823;28;20040;-55
2022/08/20 10:51:03;;;;;;;18.85;10.20;;;;;;;21.08;37.19;100946.06;5034474;28;20108;-57
2022/08/20 10:53:28;;;;;;;16.60;8.43;;;;;;;21.11;36.99;100930.41;5032382;28;20030;-54
2022/08/20 10:55:56;;;;;;;12.27;8.02;;;;;;;21.12;37.04;100941.16;5014803;28;20034;-56
2022/08/20 10:58:22;;;;;;;15.38;8.23;;;;;;;21.03;37.37;100923.06;5014446;28;20057;-56
2022/08/20 11:00:47;;;;;;;17.80;8.55;;;;;;;20.84;37.82;100911.44;5017936;28;20069;-55
2022/08/20 11:03:13;;;;;;;12.45;7.80;;;;;;;21.04;37.19;100922.91;5033883;28;20042;-52
2022/08/20 11:05:38;;;;;;;13.90;8.38;;;;;;;21.08;37.89;100921.56;5034385;28;20107;-55
2022/08/20 11:08:04;;;;;;;12.38;7.70;;;;;;;21.19;37.30;100914.09;5019041;28;20026;-53
2022/08/20 11:10:32;;;;;;;11.77;7.28;;;;;;;21.18;37.03;100934.16;5014389;28;20358;-55
2022/08/20 11:13:02;;;;;;;14.18;7.03;;;;;;;21.21;36.86;100925.66;5019763;28;20030;-53
2022/08/20 11:15:28;;;;;;;12.95;6.72;;;;;;;21.16;37.44;100907.13;5034095;28;20036;-50
2022/08/20 11:17:54;;;;;;;14.35;7.45;;;;;;;21.21;37.37;100915.63;5033611;28;20029;-54
2022/08/20 11:20:22;;;;;;;8.85;6.10;;;;;;;21.46;36.18;100925.69;5033639;28;20079;-58